sensor_id;sensor_type;location;lat;lon;timestamp;P1;durP1;ratioP1;P2;durP2;ratioP2
57615;SDS011;43816;52.054;-9.494;2024-02-26T00:00:03;5.23;;;4.83;;
57615;SDS011;43816;52.054;-9.494;2024-02-26T00:00:14;5.25;;;4.85;;
57615;SDS011;43816;52.054;-9.494;2024-02-26T00:00:24;5.20;;;4.80;;
57615;SDS011;43816;52.054;-9.494;2024-02-26T00:00:35;5.15;;;4.75;;
57615;SDS011;43816;52.054;-9.494;2024-02-26T00:00:45;5.00;;;4.70;;
57615;SDS011;43816;52.054;-9.494;2024-02-26T00:00:55;4.87;;;4.57;;
57615;SDS011;43816;52.054;-9.494;2024-02-26T00:01:05;4.73;;;4.47;;
57615;SDS011;43816;52.054;-9.494;2024-02-26T00:01:16;4.72;;;4.43;;
57615;SDS011;43816;52.054;-9.494;2024-02-26T00:01:26;4.80;;;4.50;;
57615;SDS011;43816;52.054;-9.494;2024-02-26T00:01:37;5.00;;;4.70;;
57615;SDS011;43816;52.054;-9.494;2024-02-26T00:01:47;5.20;;;4.90;;
57615;SDS011;43816;52.054;-9.494;2024-02-26T00:01:57;5.20;;;4.90;;
57615;SDS011;43816;52.054;-9.494;2024-02-26T00:02:08;5.07;;;4.77;;
57615;SDS011;43816;52.054;-9.494;2024-02-26T00:02:18;5.00;;;4.70;;
57615;SDS011;43816;52.054;-9.494;2024-02-26T00:02:28;4.95;;;4.65;;
57615;SDS011;43816;52.054;-9.494;2024-02-26T00:02:38;4.90;;;4.60;;
57615;SDS011;43816;52.054;-9.494;2024-02-26T00:02:49;5.03;;;4.63;;
57615;SDS011;43816;52.054;-9.494;2024-02-26T00:02:59;5.03;;;4.63;;
57615;SDS011;43816;52.054;-9.494;2024-02-26T00:03:09;5.00;;;4.68;;
57615;SDS011;43816;52.054;-9.494;2024-02-26T00:03:20;4.90;;;4.60;;
57615;SDS011;43816;52.054;-9.494;2024-02-26T00:03:30;5.00;;;4.70;;
57615;SDS011;43816;52.054;-9.494;2024-02-26T00:03:40;4.88;;;4.57;;
57615;SDS011;43816;52.054;-9.494;2024-02-26T00:03:50;4.87;;;4.57;;
57615;SDS011;43816;52.054;-9.494;2024-02-26T00:04:01;4.70;;;4.40;;
57615;SDS011;43816;52.054;-9.494;2024-02-26T00:04:11;4.82;;;4.53;;
57615;SDS011;43816;52.054;-9.494;2024-02-26T00:04:22;4.80;;;4.50;;
57615;SDS011;43816;52.054;-9.494;2024-02-26T00:04:32;4.90;;;4.60;;
57615;SDS011;43816;52.054;-9.494;2024-02-26T00:04:42;4.90;;;4.60;;
57615;SDS011;43816;52.054;-9.494;2024-02-26T00:04:52;4.73;;;4.43;;
57615;SDS011;43816;52.054;-9.494;2024-02-26T00:05:06;4.72;;;4.50;;
57615;SDS011;43816;52.054;-9.494;2024-02-26T00:05:17;4.65;;;4.45;;
57615;SDS011;43816;52.054;-9.494;2024-02-26T00:05:28;4.80;;;4.50;;
57615;SDS011;43816;52.054;-9.494;2024-02-26T00:05:38;4.70;;;4.40;;
57615;SDS011;43816;52.054;-9.494;2024-02-26T00:05:48;4.77;;;4.47;;
57615;SDS011;43816;52.054;-9.494;2024-02-26T00:05:58;4.90;;;4.60;;
57615;SDS011;43816;52.054;-9.494;2024-02-26T00:06:09;4.90;;;4.60;;
57615;SDS011;43816;52.054;-9.494;2024-02-26T00:06:19;4.80;;;4.50;;
57615;SDS011;43816;52.054;-9.494;2024-02-26T00:06:30;4.67;;;4.37;;
57615;SDS011;43816;52.054;-9.494;2024-02-26T00:06:40;4.95;;;4.55;;
57615;SDS011;43816;52.054;-9.494;2024-02-26T00:06:51;5.10;;;4.60;;
57615;SDS011;43816;52.054;-9.494;2024-02-26T00:07:01;5.07;;;4.67;;
57615;SDS011;43816;52.054;-9.494;2024-02-26T00:07:11;4.85;;;4.53;;
57615;SDS011;43816;52.054;-9.494;2024-02-26T00:07:22;4.70;;;4.40;;
57615;SDS011;43816;52.054;-9.494;2024-02-26T00:07:32;4.67;;;4.37;;
57615;SDS011;43816;52.054;-9.494;2024-02-26T00:07:42;4.70;;;4.40;;
57615;SDS011;43816;52.054;-9.494;2024-02-26T00:07:52;4.70;;;4.40;;
57615;SDS011;43816;52.054;-9.494;2024-02-26T00:08:03;4.60;;;4.30;;
57615;SDS011;43816;52.054;-9.494;2024-02-26T00:08:13;4.65;;;4.35;;
57615;SDS011;43816;52.054;-9.494;2024-02-26T00:08:24;4.70;;;4.40;;
57615;SDS011;43816;52.054;-9.494;2024-02-26T00:08:34;4.77;;;4.47;;
57615;SDS011;43816;52.054;-9.494;2024-02-26T00:08:44;4.80;;;4.50;;
57615;SDS011;43816;52.054;-9.494;2024-02-26T00:08:55;4.80;;;4.50;;
57615;SDS011;43816;52.054;-9.494;2024-02-26T00:09:05;4.75;;;4.45;;
57615;SDS011;43816;52.054;-9.494;2024-02-26T00:09:15;4.70;;;4.40;;
57615;SDS011;43816;52.054;-9.494;2024-02-26T00:09:26;4.83;;;4.53;;
57615;SDS011;43816;52.054;-9.494;2024-02-26T00:09:36;4.75;;;4.45;;
57615;SDS011;43816;52.054;-9.494;2024-02-26T00:09:46;4.77;;;4.37;;
57615;SDS011;43816;52.054;-9.494;2024-02-26T00:09:56;4.67;;;4.30;;
57615;SDS011;43816;52.054;-9.494;2024-02-26T00:10:07;4.60;;;4.30;;
57615;SDS011;43816;52.054;-9.494;2024-02-26T00:10:17;4.50;;;4.20;;
57615;SDS011;43816;52.054;-9.494;2024-02-26T00:10:28;4.40;;;4.18;;
57615;SDS011;43816;52.054;-9.494;2024-02-26T00:10:38;4.50;;;4.20;;
57615;SDS011;43816;52.054;-9.494;2024-02-26T00:10:48;4.50;;;4.20;;
57615;SDS011;43816;52.054;-9.494;2024-02-26T00:10:58;4.68;;;4.38;;
57615;SDS011;43816;52.054;-9.494;2024-02-26T00:11:09;5.07;;;4.67;;
57615;SDS011;43816;52.054;-9.494;2024-02-26T00:11:19;5.30;;;4.90;;
57615;SDS011;43816;52.054;-9.494;2024-02-26T00:11:30;5.23;;;4.80;;
57615;SDS011;43816;52.054;-9.494;2024-02-26T00:11:40;5.03;;;4.67;;
57615;SDS011;43816;52.054;-9.494;2024-02-26T00:11:50;4.80;;;4.50;;
57615;SDS011;43816;52.054;-9.494;2024-02-26T00:12:01;4.78;;;4.47;;
57615;SDS011;43816;52.054;-9.494;2024-02-26T00:12:11;4.80;;;4.50;;
57615;SDS011;43816;52.054;-9.494;2024-02-26T00:12:22;4.70;;;4.40;;
57615;SDS011;43816;52.054;-9.494;2024-02-26T00:12:32;4.63;;;4.33;;
57615;SDS011;43816;52.054;-9.494;2024-02-26T00:12:42;4.60;;;4.30;;
57615;SDS011;43816;52.054;-9.494;2024-02-26T00:12:56;4.80;;;4.50;;
57615;SDS011;43816;52.054;-9.494;2024-02-26T00:13:06;5.00;;;4.70;;
57615;SDS011;43816;52.054;-9.494;2024-02-26T00:13:16;5.10;;;4.70;;
57615;SDS011;43816;52.054;-9.494;2024-02-26T00:13:29;4.63;;;4.32;;
57615;SDS011;43816;52.054;-9.494;2024-02-26T00:13:40;4.70;;;4.40;;
57615;SDS011;43816;52.054;-9.494;2024-02-26T00:13:50;4.93;;;4.63;;
57615;SDS011;43816;52.054;-9.494;2024-02-26T00:14:00;5.23;;;4.90;;
57615;SDS011;43816;52.054;-9.494;2024-02-26T00:14:10;5.07;;;4.73;;
57615;SDS011;43816;52.054;-9.494;2024-02-26T00:14:21;4.77;;;4.47;;
57615;SDS011;43816;52.054;-9.494;2024-02-26T00:14:31;4.70;;;4.40;;
57615;SDS011;43816;52.054;-9.494;2024-02-26T00:14:41;4.53;;;4.30;;
57615;SDS011;43816;52.054;-9.494;2024-02-26T00:14:52;4.60;;;4.30;;
57615;SDS011;43816;52.054;-9.494;2024-02-26T00:15:03;4.60;;;4.30;;
57615;SDS011;43816;52.054;-9.494;2024-02-26T00:15:13;4.67;;;4.37;;
57615;SDS011;43816;52.054;-9.494;2024-02-26T00:15:24;4.60;;;4.30;;
57615;SDS011;43816;52.054;-9.494;2024-02-26T00:15:34;4.70;;;4.40;;
57615;SDS011;43816;52.054;-9.494;2024-02-26T00:15:44;4.73;;;4.43;;
57615;SDS011;43816;52.054;-9.494;2024-02-26T00:15:54;4.60;;;4.33;;
57615;SDS011;43816;52.054;-9.494;2024-02-26T00:16:05;4.70;;;4.40;;
57615;SDS011;43816;52.054;-9.494;2024-02-26T00:16:15;4.70;;;4.40;;
57615;SDS011;43816;52.054;-9.494;2024-02-26T00:16:26;4.95;;;4.55;;
57615;SDS011;43816;52.054;-9.494;2024-02-26T00:16:36;4.90;;;4.50;;
57615;SDS011;43816;52.054;-9.494;2024-02-26T00:16:46;4.97;;;4.57;;
57615;SDS011;43816;52.054;-9.494;2024-02-26T00:16:56;4.88;;;4.50;;
57615;SDS011;43816;52.054;-9.494;2024-02-26T00:17:07;4.83;;;4.50;;
57615;SDS011;43816;52.054;-9.494;2024-02-26T00:17:17;4.53;;;4.23;;
57615;SDS011;43816;52.054;-9.494;2024-02-26T00:17:27;4.50;;;4.22;;
57615;SDS011;43816;52.054;-9.494;2024-02-26T00:17:37;4.60;;;4.30;;
57615;SDS011;43816;52.054;-9.494;2024-02-26T00:17:48;4.70;;;4.40;;
57615;SDS011;43816;52.054;-9.494;2024-02-26T00:17:58;4.80;;;4.50;;
57615;SDS011;43816;52.054;-9.494;2024-02-26T00:18:08;4.93;;;4.63;;
57615;SDS011;43816;52.054;-9.494;2024-02-26T00:18:19;4.90;;;4.60;;
57615;SDS011;43816;52.054;-9.494;2024-02-26T00:18:29;4.82;;;4.50;;
57615;SDS011;43816;52.054;-9.494;2024-02-26T00:18:39;4.70;;;4.30;;
57615;SDS011;43816;52.054;-9.494;2024-02-26T00:18:50;4.67;;;4.27;;
57615;SDS011;43816;52.054;-9.494;2024-02-26T00:19:00;4.50;;;4.20;;
57615;SDS011;43816;52.054;-9.494;2024-02-26T00:19:10;4.43;;;4.17;;
57615;SDS011;43816;52.054;-9.494;2024-02-26T00:19:21;4.40;;;4.20;;
57615;SDS011;43816;52.054;-9.494;2024-02-26T00:19:31;4.57;;;4.28;;
57615;SDS011;43816;52.054;-9.494;2024-02-26T00:19:41;4.77;;;4.37;;
57615;SDS011;43816;52.054;-9.494;2024-02-26T00:19:52;4.53;;;4.20;;
57615;SDS011;43816;52.054;-9.494;2024-02-26T00:20:03;4.50;;;4.20;;
57615;SDS011;43816;52.054;-9.494;2024-02-26T00:20:14;4.40;;;4.10;;
57615;SDS011;43816;52.054;-9.494;2024-02-26T00:20:24;4.50;;;4.20;;
57615;SDS011;43816;52.054;-9.494;2024-02-26T00:20:35;4.60;;;4.30;;
57615;SDS011;43816;52.054;-9.494;2024-02-26T00:20:45;4.60;;;4.30;;
57615;SDS011;43816;52.054;-9.494;2024-02-26T00:20:55;4.60;;;4.30;;
57615;SDS011;43816;52.054;-9.494;2024-02-26T00:21:06;4.63;;;4.35;;
57615;SDS011;43816;52.054;-9.494;2024-02-26T00:21:16;4.60;;;4.40;;
57615;SDS011;43816;52.054;-9.494;2024-02-26T00:21:27;4.67;;;4.37;;
57615;SDS011;43816;52.054;-9.494;2024-02-26T00:21:41;4.90;;;4.50;;
57615;SDS011;43816;52.054;-9.494;2024-02-26T00:21:51;4.80;;;4.40;;
57615;SDS011;43816;52.054;-9.494;2024-02-26T00:22:04;4.80;;;4.50;;
57615;SDS011;43816;52.054;-9.494;2024-02-26T00:22:14;4.70;;;4.40;;
57615;SDS011;43816;52.054;-9.494;2024-02-26T00:22:25;4.70;;;4.40;;
57615;SDS011;43816;52.054;-9.494;2024-02-26T00:22:35;4.73;;;4.43;;
57615;SDS011;43816;52.054;-9.494;2024-02-26T00:22:46;4.80;;;4.50;;
57615;SDS011;43816;52.054;-9.494;2024-02-26T00:22:56;4.88;;;4.57;;
57615;SDS011;43816;52.054;-9.494;2024-02-26T00:23:06;5.00;;;4.60;;
57615;SDS011;43816;52.054;-9.494;2024-02-26T00:23:17;5.00;;;4.67;;
57615;SDS011;43816;52.054;-9.494;2024-02-26T00:23:27;4.80;;;4.50;;
57615;SDS011;43816;52.054;-9.494;2024-02-26T00:23:37;4.87;;;4.53;;
57615;SDS011;43816;52.054;-9.494;2024-02-26T00:23:49;4.90;;;4.50;;
57615;SDS011;43816;52.054;-9.494;2024-02-26T00:23:59;4.90;;;4.50;;
57615;SDS011;43816;52.054;-9.494;2024-02-26T00:24:10;4.60;;;4.30;;
57615;SDS011;43816;52.054;-9.494;2024-02-26T00:24:20;4.70;;;4.40;;
57615;SDS011;43816;52.054;-9.494;2024-02-26T00:24:30;4.70;;;4.40;;
57615;SDS011;43816;52.054;-9.494;2024-02-26T00:24:41;4.63;;;4.33;;
57615;SDS011;43816;52.054;-9.494;2024-02-26T00:24:51;4.60;;;4.30;;
57615;SDS011;43816;52.054;-9.494;2024-02-26T00:25:04;4.70;;;4.40;;
57615;SDS011;43816;52.054;-9.494;2024-02-26T00:25:15;4.88;;;4.57;;
57615;SDS011;43816;52.054;-9.494;2024-02-26T00:25:25;4.80;;;4.50;;
57615;SDS011;43816;52.054;-9.494;2024-02-26T00:25:35;4.70;;;4.40;;
57615;SDS011;43816;52.054;-9.494;2024-02-26T00:25:45;4.60;;;4.30;;
57615;SDS011;43816;52.054;-9.494;2024-02-26T00:25:58;4.50;;;4.20;;
57615;SDS011;43816;52.054;-9.494;2024-02-26T00:26:09;4.50;;;4.20;;
57615;SDS011;43816;52.054;-9.494;2024-02-26T00:26:19;4.53;;;4.23;;
57615;SDS011;43816;52.054;-9.494;2024-02-26T00:26:29;4.40;;;4.20;;
57615;SDS011;43816;52.054;-9.494;2024-02-26T00:26:39;4.70;;;4.40;;
57615;SDS011;43816;52.054;-9.494;2024-02-26T00:26:50;4.60;;;4.30;;
57615;SDS011;43816;52.054;-9.494;2024-02-26T00:27:00;4.70;;;4.40;;
57615;SDS011;43816;52.054;-9.494;2024-02-26T00:27:10;4.72;;;4.43;;
57615;SDS011;43816;52.054;-9.494;2024-02-26T00:27:21;4.77;;;4.47;;
57615;SDS011;43816;52.054;-9.494;2024-02-26T00:27:31;4.80;;;4.50;;
57615;SDS011;43816;52.054;-9.494;2024-02-26T00:27:41;4.82;;;4.53;;
57615;SDS011;43816;52.054;-9.494;2024-02-26T00:27:51;4.80;;;4.50;;
57615;SDS011;43816;52.054;-9.494;2024-02-26T00:28:02;4.90;;;4.50;;
57615;SDS011;43816;52.054;-9.494;2024-02-26T00:28:12;4.95;;;4.57;;
57615;SDS011;43816;52.054;-9.494;2024-02-26T00:28:23;5.13;;;4.72;;
57615;SDS011;43816;52.054;-9.494;2024-02-26T00:28:33;5.30;;;4.90;;
57615;SDS011;43816;52.054;-9.494;2024-02-26T00:28:44;5.20;;;4.80;;
57615;SDS011;43816;52.054;-9.494;2024-02-26T00:28:54;5.00;;;4.60;;
57615;SDS011;43816;52.054;-9.494;2024-02-26T00:29:04;4.73;;;4.40;;
57615;SDS011;43816;52.054;-9.494;2024-02-26T00:29:15;4.60;;;4.30;;
57615;SDS011;43816;52.054;-9.494;2024-02-26T00:29:25;4.60;;;4.30;;
57615;SDS011;43816;52.054;-9.494;2024-02-26T00:29:35;4.57;;;4.27;;
57615;SDS011;43816;52.054;-9.494;2024-02-26T00:29:46;4.47;;;4.23;;
57615;SDS011;43816;52.054;-9.494;2024-02-26T00:29:56;4.63;;;4.37;;
57615;SDS011;43816;52.054;-9.494;2024-02-26T00:30:06;4.63;;;4.33;;
57615;SDS011;43816;52.054;-9.494;2024-02-26T00:30:17;4.53;;;4.22;;
57615;SDS011;43816;52.054;-9.494;2024-02-26T00:30:27;4.33;;;4.13;;
57615;SDS011;43816;52.054;-9.494;2024-02-26T00:30:37;4.60;;;4.32;;
57615;SDS011;43816;52.054;-9.494;2024-02-26T00:30:48;4.87;;;4.57;;
57615;SDS011;43816;52.054;-9.494;2024-02-26T00:30:58;5.20;;;4.80;;
57615;SDS011;43816;52.054;-9.494;2024-02-26T00:31:08;5.10;;;4.70;;
57615;SDS011;43816;52.054;-9.494;2024-02-26T00:31:18;4.93;;;4.53;;
57615;SDS011;43816;52.054;-9.494;2024-02-26T00:31:29;4.63;;;4.30;;
57615;SDS011;43816;52.054;-9.494;2024-02-26T00:31:39;4.60;;;4.30;;
57615;SDS011;43816;52.054;-9.494;2024-02-26T00:31:49;4.70;;;4.40;;
57615;SDS011;43816;52.054;-9.494;2024-02-26T00:32:00;4.77;;;4.47;;
57615;SDS011;43816;52.054;-9.494;2024-02-26T00:32:10;4.80;;;4.50;;
57615;SDS011;43816;52.054;-9.494;2024-02-26T00:32:20;4.65;;;4.35;;
57615;SDS011;43816;52.054;-9.494;2024-02-26T00:32:30;4.67;;;4.37;;
57615;SDS011;43816;52.054;-9.494;2024-02-26T00:32:41;4.70;;;4.40;;
57615;SDS011;43816;52.054;-9.494;2024-02-26T00:32:51;4.80;;;4.50;;
57615;SDS011;43816;52.054;-9.494;2024-02-26T00:33:01;4.70;;;4.40;;
57615;SDS011;43816;52.054;-9.494;2024-02-26T00:33:12;4.77;;;4.47;;
57615;SDS011;43816;52.054;-9.494;2024-02-26T00:33:22;4.60;;;4.30;;
57615;SDS011;43816;52.054;-9.494;2024-02-26T00:33:33;4.63;;;4.33;;
57615;SDS011;43816;52.054;-9.494;2024-02-26T00:33:43;4.60;;;4.30;;
57615;SDS011;43816;52.054;-9.494;2024-02-26T00:33:53;4.73;;;4.33;;
57615;SDS011;43816;52.054;-9.494;2024-02-26T00:34:06;4.70;;;4.30;;
57615;SDS011;43816;52.054;-9.494;2024-02-26T00:34:16;4.50;;;4.20;;
57615;SDS011;43816;52.054;-9.494;2024-02-26T00:34:27;4.53;;;4.25;;
57615;SDS011;43816;52.054;-9.494;2024-02-26T00:34:37;4.70;;;4.40;;
57615;SDS011;43816;52.054;-9.494;2024-02-26T00:34:47;4.67;;;4.43;;
57615;SDS011;43816;52.054;-9.494;2024-02-26T00:34:58;4.63;;;4.32;;
57615;SDS011;43816;52.054;-9.494;2024-02-26T00:35:08;4.50;;;4.20;;
57615;SDS011;43816;52.054;-9.494;2024-02-26T00:35:18;4.60;;;4.30;;
57615;SDS011;43816;52.054;-9.494;2024-02-26T00:35:29;4.75;;;4.45;;
57615;SDS011;43816;52.054;-9.494;2024-02-26T00:35:39;4.80;;;4.40;;
57615;SDS011;43816;52.054;-9.494;2024-02-26T00:35:49;4.90;;;4.50;;
57615;SDS011;43816;52.054;-9.494;2024-02-26T00:35:59;4.78;;;4.40;;
57615;SDS011;43816;52.054;-9.494;2024-02-26T00:36:10;4.70;;;4.40;;
57615;SDS011;43816;52.054;-9.494;2024-02-26T00:36:20;4.30;;;4.10;;
57615;SDS011;43816;52.054;-9.494;2024-02-26T00:36:30;4.30;;;4.10;;
57615;SDS011;43816;52.054;-9.494;2024-02-26T00:36:40;4.57;;;4.27;;
57615;SDS011;43816;52.054;-9.494;2024-02-26T00:36:51;4.77;;;4.47;;
57615;SDS011;43816;52.054;-9.494;2024-02-26T00:37:01;4.90;;;4.50;;
57615;SDS011;43816;52.054;-9.494;2024-02-26T00:37:12;4.65;;;4.35;;
57615;SDS011;43816;52.054;-9.494;2024-02-26T00:37:22;4.47;;;4.17;;
57615;SDS011;43816;52.054;-9.494;2024-02-26T00:37:32;4.30;;;4.10;;
57615;SDS011;43816;52.054;-9.494;2024-02-26T00:37:42;4.60;;;4.33;;
57615;SDS011;43816;52.054;-9.494;2024-02-26T00:37:53;4.70;;;4.40;;
57615;SDS011;43816;52.054;-9.494;2024-02-26T00:38:03;4.82;;;4.53;;
57615;SDS011;43816;52.054;-9.494;2024-02-26T00:38:14;4.67;;;4.37;;
57615;SDS011;43816;52.054;-9.494;2024-02-26T00:38:24;4.70;;;4.40;;
57615;SDS011;43816;52.054;-9.494;2024-02-26T00:38:35;4.50;;;4.20;;
57615;SDS011;43816;52.054;-9.494;2024-02-26T00:38:45;4.57;;;4.28;;
57615;SDS011;43816;52.054;-9.494;2024-02-26T00:38:56;4.47;;;4.18;;
57615;SDS011;43816;52.054;-9.494;2024-02-26T00:39:06;4.60;;;4.30;;
57615;SDS011;43816;52.054;-9.494;2024-02-26T00:39:16;4.70;;;4.40;;
57615;SDS011;43816;52.054;-9.494;2024-02-26T00:39:26;4.70;;;4.40;;
57615;SDS011;43816;52.054;-9.494;2024-02-26T00:39:37;4.63;;;4.32;;
57615;SDS011;43816;52.054;-9.494;2024-02-26T00:39:47;4.53;;;4.30;;
57615;SDS011;43816;52.054;-9.494;2024-02-26T00:39:57;4.70;;;4.40;;
57615;SDS011;43816;52.054;-9.494;2024-02-26T00:40:08;4.70;;;4.40;;
57615;SDS011;43816;52.054;-9.494;2024-02-26T00:40:18;4.73;;;4.47;;
57615;SDS011;43816;52.054;-9.494;2024-02-26T00:40:29;4.72;;;4.53;;
57615;SDS011;43816;52.054;-9.494;2024-02-26T00:40:39;4.67;;;4.47;;
57615;SDS011;43816;52.054;-9.494;2024-02-26T00:40:49;4.63;;;4.33;;
57615;SDS011;43816;52.054;-9.494;2024-02-26T00:41:00;4.50;;;4.20;;
57615;SDS011;43816;52.054;-9.494;2024-02-26T00:41:10;4.50;;;4.20;;
57615;SDS011;43816;52.054;-9.494;2024-02-26T00:41:20;4.37;;;4.10;;
57615;SDS011;43816;52.054;-9.494;2024-02-26T00:41:30;4.28;;;4.00;;
57615;SDS011;43816;52.054;-9.494;2024-02-26T00:41:41;4.27;;;4.07;;
57615;SDS011;43816;52.054;-9.494;2024-02-26T00:41:51;4.30;;;4.10;;
57615;SDS011;43816;52.054;-9.494;2024-02-26T00:42:01;4.72;;;4.43;;
57615;SDS011;43816;52.054;-9.494;2024-02-26T00:42:12;4.80;;;4.50;;
57615;SDS011;43816;52.054;-9.494;2024-02-26T00:42:22;5.00;;;4.70;;
57615;SDS011;43816;52.054;-9.494;2024-02-26T00:42:32;4.70;;;4.37;;
57615;SDS011;43816;52.054;-9.494;2024-02-26T00:42:43;4.77;;;4.40;;
57615;SDS011;43816;52.054;-9.494;2024-02-26T00:42:53;4.60;;;4.30;;
57615;SDS011;43816;52.054;-9.494;2024-02-26T00:43:03;4.68;;;4.30;;
57615;SDS011;43816;52.054;-9.494;2024-02-26T00:43:13;4.40;;;4.10;;
57615;SDS011;43816;52.054;-9.494;2024-02-26T00:43:24;4.20;;;4.00;;
57615;SDS011;43816;52.054;-9.494;2024-02-26T00:43:34;4.40;;;4.10;;
57615;SDS011;43816;52.054;-9.494;2024-02-26T00:43:44;4.27;;;4.07;;
57615;SDS011;43816;52.054;-9.494;2024-02-26T00:43:55;4.40;;;4.10;;
57615;SDS011;43816;52.054;-9.494;2024-02-26T00:44:05;4.40;;;4.10;;
57615;SDS011;43816;52.054;-9.494;2024-02-26T00:44:15;4.40;;;4.10;;
57615;SDS011;43816;52.054;-9.494;2024-02-26T00:44:25;4.40;;;4.10;;
57615;SDS011;43816;52.054;-9.494;2024-02-26T00:44:36;4.70;;;4.40;;
57615;SDS011;43816;52.054;-9.494;2024-02-26T00:44:46;4.70;;;4.40;;
57615;SDS011;43816;52.054;-9.494;2024-02-26T00:44:56;4.73;;;4.43;;
57615;SDS011;43816;52.054;-9.494;2024-02-26T00:45:07;4.57;;;4.30;;
57615;SDS011;43816;52.054;-9.494;2024-02-26T00:45:17;4.60;;;4.30;;
57615;SDS011;43816;52.054;-9.494;2024-02-26T00:45:27;4.70;;;4.40;;
57615;SDS011;43816;52.054;-9.494;2024-02-26T00:45:38;4.60;;;4.30;;
57615;SDS011;43816;52.054;-9.494;2024-02-26T00:45:48;4.57;;;4.27;;
57615;SDS011;43816;52.054;-9.494;2024-02-26T00:45:58;4.47;;;4.17;;
57615;SDS011;43816;52.054;-9.494;2024-02-26T00:46:09;4.57;;;4.27;;
57615;SDS011;43816;52.054;-9.494;2024-02-26T00:46:19;4.60;;;4.30;;
57615;SDS011;43816;52.054;-9.494;2024-02-26T00:46:31;4.67;;;4.37;;
57615;SDS011;43816;52.054;-9.494;2024-02-26T00:46:41;4.38;;;4.18;;
57615;SDS011;43816;52.054;-9.494;2024-02-26T00:46:51;4.40;;;4.10;;
57615;SDS011;43816;52.054;-9.494;2024-02-26T00:47:02;4.37;;;4.07;;
57615;SDS011;43816;52.054;-9.494;2024-02-26T00:47:12;4.43;;;4.13;;
57615;SDS011;43816;52.054;-9.494;2024-02-26T00:47:22;4.47;;;4.27;;
57615;SDS011;43816;52.054;-9.494;2024-02-26T00:47:33;4.57;;;4.37;;
57615;SDS011;43816;52.054;-9.494;2024-02-26T00:47:43;4.60;;;4.40;;
57615;SDS011;43816;52.054;-9.494;2024-02-26T00:47:53;4.63;;;4.40;;
57615;SDS011;43816;52.054;-9.494;2024-02-26T00:48:04;4.53;;;4.30;;
57615;SDS011;43816;52.054;-9.494;2024-02-26T00:48:14;4.60;;;4.30;;
57615;SDS011;43816;52.054;-9.494;2024-02-26T00:48:25;4.60;;;4.30;;
57615;SDS011;43816;52.054;-9.494;2024-02-26T00:48:35;4.60;;;4.30;;
57615;SDS011;43816;52.054;-9.494;2024-02-26T00:48:46;4.33;;;4.13;;
57615;SDS011;43816;52.054;-9.494;2024-02-26T00:48:56;4.40;;;4.20;;
57615;SDS011;43816;52.054;-9.494;2024-02-26T00:49:06;4.40;;;4.20;;
57615;SDS011;43816;52.054;-9.494;2024-02-26T00:49:17;4.53;;;4.30;;
57615;SDS011;43816;52.054;-9.494;2024-02-26T00:49:27;4.47;;;4.20;;
57615;SDS011;43816;52.054;-9.494;2024-02-26T00:49:37;4.37;;;4.10;;
57615;SDS011;43816;52.054;-9.494;2024-02-26T00:49:47;4.43;;;4.13;;
57615;SDS011;43816;52.054;-9.494;2024-02-26T00:49:58;4.40;;;4.10;;
57615;SDS011;43816;52.054;-9.494;2024-02-26T00:50:08;4.60;;;4.30;;
57615;SDS011;43816;52.054;-9.494;2024-02-26T00:50:18;4.40;;;4.10;;
57615;SDS011;43816;52.054;-9.494;2024-02-26T00:50:29;4.33;;;4.03;;
57615;SDS011;43816;52.054;-9.494;2024-02-26T00:50:39;4.37;;;4.07;;
57615;SDS011;43816;52.054;-9.494;2024-02-26T00:50:50;4.35;;;4.05;;
57615;SDS011;43816;52.054;-9.494;2024-02-26T00:51:00;4.20;;;4.00;;
57615;SDS011;43816;52.054;-9.494;2024-02-26T00:51:10;4.20;;;4.00;;
57615;SDS011;43816;52.054;-9.494;2024-02-26T00:51:20;4.20;;;4.00;;
57615;SDS011;43816;52.054;-9.494;2024-02-26T00:51:31;4.20;;;4.00;;
57615;SDS011;43816;52.054;-9.494;2024-02-26T00:51:41;4.10;;;3.90;;
57615;SDS011;43816;52.054;-9.494;2024-02-26T00:51:51;4.40;;;4.10;;
57615;SDS011;43816;52.054;-9.494;2024-02-26T00:52:02;4.37;;;4.10;;
57615;SDS011;43816;52.054;-9.494;2024-02-26T00:52:12;4.40;;;4.20;;
57615;SDS011;43816;52.054;-9.494;2024-02-26T00:52:22;4.30;;;4.10;;
57615;SDS011;43816;52.054;-9.494;2024-02-26T00:52:32;4.40;;;4.20;;
57615;SDS011;43816;52.054;-9.494;2024-02-26T00:52:43;4.40;;;4.20;;
57615;SDS011;43816;52.054;-9.494;2024-02-26T00:52:53;4.60;;;4.30;;
57615;SDS011;43816;52.054;-9.494;2024-02-26T00:53:03;4.57;;;4.27;;
57615;SDS011;43816;52.054;-9.494;2024-02-26T00:53:14;4.37;;;4.10;;
57615;SDS011;43816;52.054;-9.494;2024-02-26T00:53:24;4.38;;;4.13;;
57615;SDS011;43816;52.054;-9.494;2024-02-26T00:53:34;4.30;;;4.10;;
57615;SDS011;43816;52.054;-9.494;2024-02-26T00:53:44;4.57;;;4.27;;
57615;SDS011;43816;52.054;-9.494;2024-02-26T00:53:55;4.40;;;4.20;;
57615;SDS011;43816;52.054;-9.494;2024-02-26T00:54:05;4.60;;;4.30;;
57615;SDS011;43816;52.054;-9.494;2024-02-26T00:54:15;4.60;;;4.40;;
57615;SDS011;43816;52.054;-9.494;2024-02-26T00:54:26;4.70;;;4.40;;
57615;SDS011;43816;52.054;-9.494;2024-02-26T00:54:36;4.75;;;4.45;;
57615;SDS011;43816;52.054;-9.494;2024-02-26T00:54:46;4.50;;;4.20;;
57615;SDS011;43816;52.054;-9.494;2024-02-26T00:54:56;4.37;;;4.07;;
57615;SDS011;43816;52.054;-9.494;2024-02-26T00:55:07;4.10;;;3.90;;
57615;SDS011;43816;52.054;-9.494;2024-02-26T00:55:17;4.20;;;4.00;;
57615;SDS011;43816;52.054;-9.494;2024-02-26T00:55:27;4.28;;;4.07;;
57615;SDS011;43816;52.054;-9.494;2024-02-26T00:55:38;4.40;;;4.20;;
57615;SDS011;43816;52.054;-9.494;2024-02-26T00:55:48;4.43;;;4.23;;
57615;SDS011;43816;52.054;-9.494;2024-02-26T00:55:58;4.43;;;4.22;;
57615;SDS011;43816;52.054;-9.494;2024-02-26T00:56:09;4.30;;;4.10;;
57615;SDS011;43816;52.054;-9.494;2024-02-26T00:56:19;4.40;;;4.13;;
57615;SDS011;43816;52.054;-9.494;2024-02-26T00:56:29;4.50;;;4.20;;
57615;SDS011;43816;52.054;-9.494;2024-02-26T00:56:39;4.60;;;4.30;;
57615;SDS011;43816;52.054;-9.494;2024-02-26T00:56:50;4.30;;;4.10;;
57615;SDS011;43816;52.054;-9.494;2024-02-26T00:57:00;4.20;;;4.00;;
57615;SDS011;43816;52.054;-9.494;2024-02-26T00:57:10;4.28;;;4.07;;
57615;SDS011;43816;52.054;-9.494;2024-02-26T00:57:21;4.37;;;4.17;;
57615;SDS011;43816;52.054;-9.494;2024-02-26T00:57:31;4.50;;;4.30;;
57615;SDS011;43816;52.054;-9.494;2024-02-26T00:57:41;4.50;;;4.30;;
57615;SDS011;43816;52.054;-9.494;2024-02-26T00:57:51;4.40;;;4.20;;
57615;SDS011;43816;52.054;-9.494;2024-02-26T00:58:02;4.40;;;4.20;;
57615;SDS011;43816;52.054;-9.494;2024-02-26T00:58:12;4.40;;;4.20;;
57615;SDS011;43816;52.054;-9.494;2024-02-26T00:58:22;4.50;;;4.30;;
57615;SDS011;43816;52.054;-9.494;2024-02-26T00:58:33;4.50;;;4.30;;
57615;SDS011;43816;52.054;-9.494;2024-02-26T00:58:43;4.47;;;4.28;;
57615;SDS011;43816;52.054;-9.494;2024-02-26T00:58:53;4.50;;;4.30;;
57615;SDS011;43816;52.054;-9.494;2024-02-26T00:59:04;4.43;;;4.23;;
57615;SDS011;43816;52.054;-9.494;2024-02-26T00:59:14;4.65;;;4.40;;
57615;SDS011;43816;52.054;-9.494;2024-02-26T00:59:24;4.67;;;4.37;;
57615;SDS011;43816;52.054;-9.494;2024-02-26T00:59:35;4.60;;;4.30;;
57615;SDS011;43816;52.054;-9.494;2024-02-26T00:59:45;4.50;;;4.20;;
57615;SDS011;43816;52.054;-9.494;2024-02-26T00:59:55;4.50;;;4.20;;
57615;SDS011;43816;52.054;-9.494;2024-02-26T01:00:06;4.70;;;4.40;;
57615;SDS011;43816;52.054;-9.494;2024-02-26T01:00:17;4.72;;;4.43;;
57615;SDS011;43816;52.054;-9.494;2024-02-26T01:00:27;4.80;;;4.50;;
57615;SDS011;43816;52.054;-9.494;2024-02-26T01:00:38;4.57;;;4.32;;
57615;SDS011;43816;52.054;-9.494;2024-02-26T01:00:48;4.40;;;4.20;;
57615;SDS011;43816;52.054;-9.494;2024-02-26T01:00:58;4.30;;;4.10;;
57615;SDS011;43816;52.054;-9.494;2024-02-26T01:01:08;4.22;;;4.03;;
57615;SDS011;43816;52.054;-9.494;2024-02-26T01:01:19;4.03;;;3.83;;
57615;SDS011;43816;52.054;-9.494;2024-02-26T01:01:29;4.00;;;3.80;;
57615;SDS011;43816;52.054;-9.494;2024-02-26T01:01:39;4.10;;;3.90;;